sensor_id;sensor_type;location;lat;lon;timestamp;P1;durP1;ratioP1;P2;durP2;ratioP2
29570;SDS011;16814;52.118;11.436;2023-05-21T00:01:53;18.73;;;11.05;;
29570;SDS011;16814;52.118;11.436;2023-05-21T00:04:21;13.90;;;9.68;;
29570;SDS011;16814;52.118;11.436;2023-05-21T00:06:47;14.55;;;10.30;;
29570;SDS011;16814;52.118;11.436;2023-05-21T00:09:13;16.40;;;11.05;;
29570;SDS011;16814;52.118;11.436;2023-05-21T00:11:41;17.20;;;10.43;;
29570;SDS011;16814;52.118;11.436;2023-05-21T00:14:08;15.43;;;10.70;;
29570;SDS011;16814;52.118;11.436;2023-05-21T00:16:33;18.55;;;11.38;;
29570;SDS011;16814;52.118;11.436;2023-05-21T00:19:00;19.10;;;11.80;;
29570;SDS011;16814;52.118;11.436;2023-05-21T00:21:28;16.85;;;11.10;;
29570;SDS011;16814;52.118;11.436;2023-05-21T00:23:57;16.63;;;11.32;;
29570;SDS011;16814;52.118;11.436;2023-05-21T00:26:23;21.33;;;12.13;;
29570;SDS011;16814;52.118;11.436;2023-05-21T00:28:50;19.33;;;11.48;;
29570;SDS011;16814;52.118;11.436;2023-05-21T00:31:16;19.10;;;11.82;;
29570;SDS011;16814;52.118;11.436;2023-05-21T00:33:44;16.23;;;10.83;;
29570;SDS011;16814;52.118;11.436;2023-05-21T00:36:09;22.42;;;11.23;;
29570;SDS011;16814;52.118;11.436;2023-05-21T00:38:38;19.00;;;12.40;;
29570;SDS011;16814;52.118;11.436;2023-05-21T00:41:09;16.98;;;10.55;;
29570;SDS011;16814;52.118;11.436;2023-05-21T00:43:37;15.02;;;10.55;;
29570;SDS011;16814;52.118;11.436;2023-05-21T00:46:18;15.48;;;10.95;;
29570;SDS011;16814;52.118;11.436;2023-05-21T00:48:46;16.63;;;12.15;;
29570;SDS011;16814;52.118;11.436;2023-05-21T00:51:15;16.42;;;11.27;;
29570;SDS011;16814;52.118;11.436;2023-05-21T00:53:43;20.57;;;12.10;;
29570;SDS011;16814;52.118;11.436;2023-05-21T00:56:10;22.35;;;12.70;;
29570;SDS011;16814;52.118;11.436;2023-05-21T00:58:38;22.45;;;13.02;;
29570;SDS011;16814;52.118;11.436;2023-05-21T01:01:04;23.27;;;13.43;;
29570;SDS011;16814;52.118;11.436;2023-05-21T01:03:38;19.98;;;13.13;;
29570;SDS011;16814;52.118;11.436;2023-05-21T01:06:04;18.05;;;11.90;;
29570;SDS011;16814;52.118;11.436;2023-05-21T01:08:32;19.27;;;13.13;;
29570;SDS011;16814;52.118;11.436;2023-05-21T01:11:07;19.25;;;13.13;;
29570;SDS011;16814;52.118;11.436;2023-05-21T01:13:36;19.25;;;13.25;;
29570;SDS011;16814;52.118;11.436;2023-05-21T01:16:04;19.65;;;13.32;;
29570;SDS011;16814;52.118;11.436;2023-05-21T01:18:32;20.23;;;14.18;;
29570;SDS011;16814;52.118;11.436;2023-05-21T01:21:02;20.58;;;13.65;;
29570;SDS011;16814;52.118;11.436;2023-05-21T01:23:29;16.85;;;12.50;;
29570;SDS011;16814;52.118;11.436;2023-05-21T01:25:55;23.42;;;12.95;;
29570;SDS011;16814;52.118;11.436;2023-05-21T01:28:20;19.60;;;13.90;;
29570;SDS011;16814;52.118;11.436;2023-05-21T01:30:49;23.02;;;13.25;;
29570;SDS011;16814;52.118;11.436;2023-05-21T01:33:29;23.65;;;13.20;;
29570;SDS011;16814;52.118;11.436;2023-05-21T01:36:03;20.08;;;14.07;;
29570;SDS011;16814;52.118;11.436;2023-05-21T01:38:41;18.92;;;13.15;;
29570;SDS011;16814;52.118;11.436;2023-05-21T01:41:15;19.92;;;12.95;;
29570;SDS011;16814;52.118;11.436;2023-05-21T01:43:42;19.77;;;13.50;;
29570;SDS011;16814;52.118;11.436;2023-05-21T01:46:12;17.95;;;13.35;;
29570;SDS011;16814;52.118;11.436;2023-05-21T01:48:42;24.30;;;14.52;;
29570;SDS011;16814;52.118;11.436;2023-05-21T01:51:08;21.20;;;14.05;;
29570;SDS011;16814;52.118;11.436;2023-05-21T01:53:34;23.70;;;14.40;;
29570;SDS011;16814;52.118;11.436;2023-05-21T01:56:04;20.48;;;13.98;;
29570;SDS011;16814;52.118;11.436;2023-05-21T01:58:31;18.67;;;13.13;;
29570;SDS011;16814;52.118;11.436;2023-05-21T02:00:58;22.17;;;14.70;;
29570;SDS011;16814;52.118;11.436;2023-05-21T02:03:24;21.45;;;14.55;;
29570;SDS011;16814;52.118;11.436;2023-05-21T02:05:52;17.95;;;12.80;;
29570;SDS011;16814;52.118;11.436;2023-05-21T02:08:19;20.33;;;14.27;;
29570;SDS011;16814;52.118;11.436;2023-05-21T02:10:49;18.92;;;13.95;;
29570;SDS011;16814;52.118;11.436;2023-05-21T02:13:15;21.33;;;14.25;;
29570;SDS011;16814;52.118;11.436;2023-05-21T02:15:44;19.98;;;13.68;;
29570;SDS011;16814;52.118;11.436;2023-05-21T02:18:12;22.50;;;13.80;;
29570;SDS011;16814;52.118;11.436;2023-05-21T02:20:46;20.13;;;12.80;;
29570;SDS011;16814;52.118;11.436;2023-05-21T02:23:12;15.98;;;12.43;;
29570;SDS011;16814;52.118;11.436;2023-05-21T02:25:39;19.00;;;12.93;;
29570;SDS011;16814;52.118;11.436;2023-05-21T02:28:06;22.58;;;14.10;;
29570;SDS011;16814;52.118;11.436;2023-05-21T02:30:32;19.88;;;13.00;;
29570;SDS011;16814;52.118;11.436;2023-05-21T02:32:58;19.35;;;14.07;;
29570;SDS011;16814;52.118;11.436;2023-05-21T02:35:24;17.02;;;12.55;;
29570;SDS011;16814;52.118;11.436;2023-05-21T02:37:50;22.48;;;13.60;;
29570;SDS011;16814;52.118;11.436;2023-05-21T02:40:18;20.73;;;13.48;;
29570;SDS011;16814;52.118;11.436;2023-05-21T02:42:43;21.73;;;14.47;;
29570;SDS011;16814;52.118;11.436;2023-05-21T02:45:09;24.07;;;13.53;;
29570;SDS011;16814;52.118;11.436;2023-05-21T02:47:37;19.85;;;13.70;;
29570;SDS011;16814;52.118;11.436;2023-05-21T02:50:04;19.80;;;12.90;;
29570;SDS011;16814;52.118;11.436;2023-05-21T02:52:33;17.33;;;12.13;;
29570;SDS011;16814;52.118;11.436;2023-05-21T02:54:59;20.73;;;12.63;;
29570;SDS011;16814;52.118;11.436;2023-05-21T02:57:25;16.37;;;11.97;;
29570;SDS011;16814;52.118;11.436;2023-05-21T02:59:52;19.53;;;12.83;;
29570;SDS011;16814;52.118;11.436;2023-05-21T03:02:17;16.67;;;12.00;;
29570;SDS011;16814;52.118;11.436;2023-05-21T03:04:45;17.63;;;12.00;;
29570;SDS011;16814;52.118;11.436;2023-05-21T03:07:12;18.25;;;12.75;;
29570;SDS011;16814;52.118;11.436;2023-05-21T03:09:42;27.33;;;15.10;;
29570;SDS011;16814;52.118;11.436;2023-05-21T03:12:09;24.00;;;15.80;;
29570;SDS011;16814;52.118;11.436;2023-05-21T03:14:36;25.42;;;15.38;;
29570;SDS011;16814;52.118;11.436;2023-05-21T03:17:02;26.03;;;17.47;;
29570;SDS011;16814;52.118;11.436;2023-05-21T03:19:33;24.33;;;16.77;;
29570;SDS011;16814;52.118;11.436;2023-05-21T03:22:06;26.58;;;17.35;;
29570;SDS011;16814;52.118;11.436;2023-05-21T03:24:32;24.00;;;16.65;;
29570;SDS011;16814;52.118;11.436;2023-05-21T03:26:59;28.10;;;16.87;;
29570;SDS011;16814;52.118;11.436;2023-05-21T03:29:27;26.83;;;17.60;;
29570;SDS011;16814;52.118;11.436;2023-05-21T03:31:54;28.52;;;16.92;;
29570;SDS011;16814;52.118;11.436;2023-05-21T03:34:21;29.05;;;18.17;;
29570;SDS011;16814;52.118;11.436;2023-05-21T03:36:49;30.85;;;19.90;;
29570;SDS011;16814;52.118;11.436;2023-05-21T03:39:16;29.13;;;19.42;;
29570;SDS011;16814;52.118;11.436;2023-05-21T03:41:44;30.15;;;20.20;;
29570;SDS011;16814;52.118;11.436;2023-05-21T03:44:12;28.83;;;18.40;;
29570;SDS011;16814;52.118;11.436;2023-05-21T03:46:42;31.80;;;20.73;;
29570;SDS011;16814;52.118;11.436;2023-05-21T03:49:09;33.63;;;20.23;;
29570;SDS011;16814;52.118;11.436;2023-05-21T03:51:37;32.97;;;20.15;;
29570;SDS011;16814;52.118;11.436;2023-05-21T03:54:04;36.03;;;20.55;;
29570;SDS011;16814;52.118;11.436;2023-05-21T03:56:32;29.70;;;20.27;;
29570;SDS011;16814;52.118;11.436;2023-05-21T03:58:59;37.97;;;21.33;;
29570;SDS011;16814;52.118;11.436;2023-05-21T04:01:26;31.58;;;20.83;;
29570;SDS011;16814;52.118;11.436;2023-05-21T04:03:52;30.98;;;21.23;;
29570;SDS011;16814;52.118;11.436;2023-05-21T04:06:19;32.37;;;20.47;;
29570;SDS011;16814;52.118;11.436;2023-05-21T04:08:46;27.75;;;19.83;;
29570;SDS011;16814;52.118;11.436;2023-05-21T04:11:19;28.83;;;20.73;;
29570;SDS011;16814;52.118;11.436;2023-05-21T04:13:44;30.10;;;20.70;;
29570;SDS011;16814;52.118;11.436;2023-05-21T04:16:12;32.65;;;20.20;;
29570;SDS011;16814;52.118;11.436;2023-05-21T04:18:38;33.00;;;22.05;;
29570;SDS011;16814;52.118;11.436;2023-05-21T04:21:06;33.47;;;21.80;;
29570;SDS011;16814;52.118;11.436;2023-05-21T04:23:33;33.10;;;21.85;;
29570;SDS011;16814;52.118;11.436;2023-05-21T04:26:10;35.15;;;23.17;;
29570;SDS011;16814;52.118;11.436;2023-05-21T04:28:38;35.05;;;21.90;;
29570;SDS011;16814;52.118;11.436;2023-05-21T04:31:06;35.03;;;23.75;;
29570;SDS011;16814;52.118;11.436;2023-05-21T04:33:34;34.92;;;22.25;;
29570;SDS011;16814;52.118;11.436;2023-05-21T04:36:08;33.83;;;21.75;;
29570;SDS011;16814;52.118;11.436;2023-05-21T04:38:36;40.08;;;22.65;;
29570;SDS011;16814;52.118;11.436;2023-05-21T04:41:02;33.42;;;22.85;;
29570;SDS011;16814;52.118;11.436;2023-05-21T04:43:30;34.60;;;23.00;;
29570;SDS011;16814;52.118;11.436;2023-05-21T04:45:57;37.00;;;23.52;;
29570;SDS011;16814;52.118;11.436;2023-05-21T04:48:25;35.78;;;23.90;;
29570;SDS011;16814;52.118;11.436;2023-05-21T04:50:53;33.33;;;22.73;;
29570;SDS011;16814;52.118;11.436;2023-05-21T04:53:22;37.55;;;24.48;;
29570;SDS011;16814;52.118;11.436;2023-05-21T04:55:49;36.38;;;23.45;;
29570;SDS011;16814;52.118;11.436;2023-05-21T04:58:14;42.63;;;23.30;;
29570;SDS011;16814;52.118;11.436;2023-05-21T05:00:45;42.50;;;25.60;;
29570;SDS011;16814;52.118;11.436;2023-05-21T05:03:11;35.03;;;24.98;;
29570;SDS011;16814;52.118;11.436;2023-05-21T05:05:39;37.97;;;25.50;;
29570;SDS011;16814;52.118;11.436;2023-05-21T05:08:06;44.28;;;26.23;;
29570;SDS011;16814;52.118;11.436;2023-05-21T05:10:33;39.78;;;24.95;;
29570;SDS011;16814;52.118;11.436;2023-05-21T05:12:59;39.58;;;25.58;;
29570;SDS011;16814;52.118;11.436;2023-05-21T05:15:25;40.53;;;26.37;;
29570;SDS011;16814;52.118;11.436;2023-05-21T05:17:50;40.43;;;25.93;;
29570;SDS011;16814;52.118;11.436;2023-05-21T05:20:29;43.28;;;27.77;;
29570;SDS011;16814;52.118;11.436;2023-05-21T05:22:54;44.88;;;27.88;;
29570;SDS011;16814;52.118;11.436;2023-05-21T05:25:22;40.25;;;27.33;;
29570;SDS011;16814;52.118;11.436;2023-05-21T05:27:48;42.08;;;28.23;;
29570;SDS011;16814;52.118;11.436;2023-05-21T05:30:13;42.50;;;28.33;;
29570;SDS011;16814;52.118;11.436;2023-05-21T05:32:40;44.08;;;29.27;;
29570;SDS011;16814;52.118;11.436;2023-05-21T05:35:07;44.95;;;29.23;;
29570;SDS011;16814;52.118;11.436;2023-05-21T05:37:34;43.60;;;29.77;;
29570;SDS011;16814;52.118;11.436;2023-05-21T05:40:01;43.65;;;28.77;;
29570;SDS011;16814;52.118;11.436;2023-05-21T05:42:28;45.97;;;29.52;;
29570;SDS011;16814;52.118;11.436;2023-05-21T05:44:56;44.90;;;28.65;;
29570;SDS011;16814;52.118;11.436;2023-05-21T05:47:21;42.03;;;27.77;;
29570;SDS011;16814;52.118;11.436;2023-05-21T05:49:48;39.65;;;26.27;;
29570;SDS011;16814;52.118;11.436;2023-05-21T05:52:15;42.20;;;26.50;;
29570;SDS011;16814;52.118;11.436;2023-05-21T05:54:41;42.10;;;25.53;;
29570;SDS011;16814;52.118;11.436;2023-05-21T05:57:08;39.97;;;26.47;;
29570;SDS011;16814;52.118;11.436;2023-05-21T05:59:33;37.85;;;24.85;;
29570;SDS011;16814;52.118;11.436;2023-05-21T06:01:59;35.23;;;24.30;;
29570;SDS011;16814;52.118;11.436;2023-05-21T06:04:25;34.70;;;23.77;;
29570;SDS011;16814;52.118;11.436;2023-05-21T06:06:55;36.20;;;23.17;;
29570;SDS011;16814;52.118;11.436;2023-05-21T06:09:24;37.47;;;23.30;;
29570;SDS011;16814;52.118;11.436;2023-05-21T06:11:50;35.05;;;23.38;;
29570;SDS011;16814;52.118;11.436;2023-05-21T06:14:17;33.40;;;22.73;;
29570;SDS011;16814;52.118;11.436;2023-05-21T06:16:43;33.78;;;22.98;;
29570;SDS011;16814;52.118;11.436;2023-05-21T06:19:08;37.17;;;24.17;;
29570;SDS011;16814;52.118;11.436;2023-05-21T06:21:35;33.25;;;22.70;;
29570;SDS011;16814;52.118;11.436;2023-05-21T06:24:01;34.20;;;23.00;;
29570;SDS011;16814;52.118;11.436;2023-05-21T06:26:27;38.65;;;24.00;;
29570;SDS011;16814;52.118;11.436;2023-05-21T06:28:52;35.97;;;24.40;;
29570;SDS011;16814;52.118;11.436;2023-05-21T06:31:19;39.85;;;24.73;;
29570;SDS011;16814;52.118;11.436;2023-05-21T06:33:47;36.00;;;25.63;;
29570;SDS011;16814;52.118;11.436;2023-05-21T06:36:13;36.17;;;25.77;;
29570;SDS011;16814;52.118;11.436;2023-05-21T06:38:40;37.83;;;25.63;;
29570;SDS011;16814;52.118;11.436;2023-05-21T06:41:07;36.67;;;24.48;;
29570;SDS011;16814;52.118;11.436;2023-05-21T06:43:33;37.75;;;25.35;;
29570;SDS011;16814;52.118;11.436;2023-05-21T06:45:58;38.47;;;25.40;;
29570;SDS011;16814;52.118;11.436;2023-05-21T06:48:25;36.22;;;24.77;;
29570;SDS011;16814;52.118;11.436;2023-05-21T06:50:52;38.13;;;25.83;;
29570;SDS011;16814;52.118;11.436;2023-05-21T06:53:17;35.17;;;25.00;;
29570;SDS011;16814;52.118;11.436;2023-05-21T06:55:44;37.27;;;25.87;;
29570;SDS011;16814;52.118;11.436;2023-05-21T06:58:10;38.92;;;24.85;;
29570;SDS011;16814;52.118;11.436;2023-05-21T07:00:37;37.47;;;24.83;;
29570;SDS011;16814;52.118;11.436;2023-05-21T07:03:02;36.97;;;25.58;;
29570;SDS011;16814;52.118;11.436;2023-05-21T07:05:28;37.93;;;25.80;;
29570;SDS011;16814;52.118;11.436;2023-05-21T07:07:55;38.13;;;26.92;;
29570;SDS011;16814;52.118;11.436;2023-05-21T07:10:22;38.97;;;27.02;;
29570;SDS011;16814;52.118;11.436;2023-05-21T07:12:49;38.08;;;26.25;;
29570;SDS011;16814;52.118;11.436;2023-05-21T07:15:16;37.30;;;25.47;;
29570;SDS011;16814;52.118;11.436;2023-05-21T07:17:41;39.08;;;27.02;;
29570;SDS011;16814;52.118;11.436;2023-05-21T07:20:07;37.53;;;26.23;;
29570;SDS011;16814;52.118;11.436;2023-05-21T07:22:33;39.03;;;25.80;;
29570;SDS011;16814;52.118;11.436;2023-05-21T07:25:02;37.38;;;26.17;;
29570;SDS011;16814;52.118;11.436;2023-05-21T07:27:29;39.50;;;26.95;;
29570;SDS011;16814;52.118;11.436;2023-05-21T07:29:56;40.63;;;27.70;;
29570;SDS011;16814;52.118;11.436;2023-05-21T07:32:22;40.20;;;27.83;;
29570;SDS011;16814;52.118;11.436;2023-05-21T07:34:49;39.00;;;27.05;;
29570;SDS011;16814;52.118;11.436;2023-05-21T07:37:15;37.10;;;26.85;;
29570;SDS011;16814;52.118;11.436;2023-05-21T07:39:41;38.50;;;27.27;;
29570;SDS011;16814;52.118;11.436;2023-05-21T07:42:09;40.83;;;28.70;;
29570;SDS011;16814;52.118;11.436;2023-05-21T07:44:36;37.65;;;26.42;;
29570;SDS011;16814;52.118;11.436;2023-05-21T07:47:01;39.63;;;27.42;;
29570;SDS011;16814;52.118;11.436;2023-05-21T07:49:27;40.00;;;26.93;;
29570;SDS011;16814;52.118;11.436;2023-05-21T07:51:53;37.53;;;26.43;;
29570;SDS011;16814;52.118;11.436;2023-05-21T07:54:18;36.20;;;26.20;;
29570;SDS011;16814;52.118;11.436;2023-05-21T07:56:45;37.77;;;26.00;;
29570;SDS011;16814;52.118;11.436;2023-05-21T07:59:17;36.33;;;25.75;;
29570;SDS011;16814;52.118;11.436;2023-05-21T08:01:43;33.92;;;24.33;;
29570;SDS011;16814;52.118;11.436;2023-05-21T08:04:11;36.45;;;25.38;;
29570;SDS011;16814;52.118;11.436;2023-05-21T08:06:38;36.45;;;24.85;;
29570;SDS011;16814;52.118;11.436;2023-05-21T08:09:03;36.08;;;24.58;;
29570;SDS011;16814;52.118;11.436;2023-05-21T08:11:31;35.55;;;24.83;;
29570;SDS011;16814;52.118;11.436;2023-05-21T08:13:59;36.10;;;25.07;;
29570;SDS011;16814;52.118;11.436;2023-05-21T08:16:25;32.88;;;23.88;;
29570;SDS011;16814;52.118;11.436;2023-05-21T08:18:53;38.15;;;25.35;;
29570;SDS011;16814;52.118;11.436;2023-05-21T08:21:19;37.45;;;24.45;;
29570;SDS011;16814;52.118;11.436;2023-05-21T08:23:46;35.55;;;24.80;;
29570;SDS011;16814;52.118;11.436;2023-05-21T08:26:16;36.95;;;24.63;;
29570;SDS011;16814;52.118;11.436;2023-05-21T08:28:43;33.80;;;23.53;;
29570;SDS011;16814;52.118;11.436;2023-05-21T08:31:10;34.72;;;23.00;;
29570;SDS011;16814;52.118;11.436;2023-05-21T08:33:37;32.53;;;23.25;;
29570;SDS011;16814;52.118;11.436;2023-05-21T08:36:04;31.42;;;23.40;;
29570;SDS011;16814;52.118;11.436;2023-05-21T08:38:33;31.65;;;22.77;;
29570;SDS011;16814;52.118;11.436;2023-05-21T08:40:58;32.87;;;22.80;;
29570;SDS011;16814;52.118;11.436;2023-05-21T08:43:28;32.00;;;21.57;;
29570;SDS011;16814;52.118;11.436;2023-05-21T08:45:56;30.10;;;21.88;;
29570;SDS011;16814;52.118;11.436;2023-05-21T08:48:26;31.23;;;22.30;;
29570;SDS011;16814;52.118;11.436;2023-05-21T08:51:04;31.90;;;22.70;;
29570;SDS011;16814;52.118;11.436;2023-05-21T08:53:31;30.05;;;20.98;;
29570;SDS011;16814;52.118;11.436;2023-05-21T08:56:00;31.48;;;21.77;;
29570;SDS011;16814;52.118;11.436;2023-05-21T08:58:28;30.93;;;22.23;;
29570;SDS011;16814;52.118;11.436;2023-05-21T09:00:59;31.92;;;21.92;;
29570;SDS011;16814;52.118;11.436;2023-05-21T09:03:26;27.73;;;20.67;;
29570;SDS011;16814;52.118;11.436;2023-05-21T09:05:53;28.30;;;21.02;;
29570;SDS011;16814;52.118;11.436;2023-05-21T09:08:23;28.23;;;20.75;;
29570;SDS011;16814;52.118;11.436;2023-05-21T09:11:00;33.70;;;20.73;;
29570;SDS011;16814;52.118;11.436;2023-05-21T09:13:38;25.70;;;19.33;;
29570;SDS011;16814;52.118;11.436;2023-05-21T09:16:06;30.73;;;18.73;;
29570;SDS011;16814;52.118;11.436;2023-05-21T09:18:34;30.63;;;19.00;;
29570;SDS011;16814;52.118;11.436;2023-05-21T09:23:59;26.50;;;19.38;;
29570;SDS011;16814;52.118;11.436;2023-05-21T09:26:25;28.50;;;19.20;;
29570;SDS011;16814;52.118;11.436;2023-05-21T09:28:56;26.50;;;19.23;;
29570;SDS011;16814;52.118;11.436;2023-05-21T09:31:25;29.52;;;19.42;;
29570;SDS011;16814;52.118;11.436;2023-05-21T09:33:53;29.65;;;20.63;;
29570;SDS011;16814;52.118;11.436;2023-05-21T09:36:19;28.00;;;19.13;;
29570;SDS011;16814;52.118;11.436;2023-05-21T09:38:49;26.02;;;18.85;;
29570;SDS011;16814;52.118;11.436;2023-05-21T09:41:17;28.42;;;19.23;;
29570;SDS011;16814;52.118;11.436;2023-05-21T09:43:44;27.30;;;18.52;;
29570;SDS011;16814;52.118;11.436;2023-05-21T09:46:09;23.55;;;17.90;;
29570;SDS011;16814;52.118;11.436;2023-05-21T09:48:39;26.05;;;17.40;;
29570;SDS011;16814;52.118;11.436;2023-05-21T09:51:08;24.63;;;17.75;;
29570;SDS011;16814;52.118;11.436;2023-05-21T09:56:24;22.57;;;16.20;;
29570;SDS011;16814;52.118;11.436;2023-05-21T09:58:57;25.85;;;17.33;;
29570;SDS011;16814;52.118;11.436;2023-05-21T10:01:26;24.52;;;17.52;;
29570;SDS011;16814;52.118;11.436;2023-05-21T10:03:56;21.02;;;16.00;;
29570;SDS011;16814;52.118;11.436;2023-05-21T10:06:29;22.63;;;15.97;;
29570;SDS011;16814;52.118;11.436;2023-05-21T10:09:05;22.90;;;15.88;;
29570;SDS011;16814;52.118;11.436;2023-05-21T10:11:38;21.33;;;15.10;;
29570;SDS011;16814;52.118;11.436;2023-05-21T10:14:13;24.42;;;15.60;;
29570;SDS011;16814;52.118;11.436;2023-05-21T10:16:54;20.55;;;16.08;;
29570;SDS011;16814;52.118;11.436;2023-05-21T10:19:23;24.10;;;17.10;;
29570;SDS011;16814;52.118;11.436;2023-05-21T10:21:50;23.03;;;16.67;;
29570;SDS011;16814;52.118;11.436;2023-05-21T10:24:18;20.63;;;15.95;;
29570;SDS011;16814;52.118;11.436;2023-05-21T10:26:45;23.50;;;15.68;;
29570;SDS011;16814;52.118;11.436;2023-05-21T10:29:13;21.25;;;16.10;;
29570;SDS011;16814;52.118;11.436;2023-05-21T10:31:42;24.35;;;16.02;;
29570;SDS011;16814;52.118;11.436;2023-05-21T10:34:13;24.00;;;16.37;;
29570;SDS011;16814;52.118;11.436;2023-05-21T10:36:41;22.10;;;15.15;;
29570;SDS011;16814;52.118;11.436;2023-05-21T10:39:14;22.42;;;15.45;;
29570;SDS011;16814;52.118;11.436;2023-05-21T10:41:55;20.30;;;14.57;;
29570;SDS011;16814;52.118;11.436;2023-05-21T10:44:51;18.47;;;13.83;;
29570;SDS011;16814;52.118;11.436;2023-05-21T10:47:33;18.65;;;13.32;;
29570;SDS011;16814;52.118;11.436;2023-05-21T10:56:40;22.55;;;15.50;;
29570;SDS011;16814;52.118;11.436;2023-05-21T10:59:34;20.40;;;14.25;;
29570;SDS011;16814;52.118;11.436;2023-05-21T11:02:08;21.40;;;14.77;;
29570;SDS011;16814;52.118;11.436;2023-05-21T11:04:45;22.00;;;15.10;;
29570;SDS011;16814;52.118;11.436;2023-05-21T11:07:14;20.33;;;14.75;;
29570;SDS011;16814;52.118;11.436;2023-05-21T11:09:49;23.93;;;13.73;;
29570;SDS011;16814;52.118;11.436;2023-05-21T11:12:16;18.65;;;14.27;;
29570;SDS011;16814;52.118;11.436;2023-05-21T11:14:57;19.52;;;12.90;;
29570;SDS011;16814;52.118;11.436;2023-05-21T11:17:39;22.45;;;12.20;;
29570;SDS011;16814;52.118;11.436;2023-05-21T11:20:10;19.33;;;11.77;;
29570;SDS011;16814;52.118;11.436;2023-05-21T11:22:42;16.25;;;10.90;;
29570;SDS011;16814;52.118;11.436;2023-05-21T11:25:12;15.55;;;10.77;;
29570;SDS011;16814;52.118;11.436;2023-05-21T11:27:40;16.25;;;10.77;;
29570;SDS011;16814;52.118;11.436;2023-05-21T11:30:07;17.08;;;10.25;;
29570;SDS011;16814;52.118;11.436;2023-05-21T11:35:37;13.27;;;10.43;;
29570;SDS011;16814;52.118;11.436;2023-05-21T11:38:30;15.70;;;10.48;;
29570;SDS011;16814;52.118;11.436;2023-05-21T11:41:00;14.65;;;10.75;;
29570;SDS011;16814;52.118;11.436;2023-05-21T11:43:27;15.43;;;10.60;;
29570;SDS011;16814;52.118;11.436;2023-05-21T11:45:53;19.85;;;11.32;;
29570;SDS011;16814;52.118;11.436;2023-05-21T11:48:22;16.30;;;10.80;;
29570;SDS011;16814;52.118;11.436;2023-05-21T11:50:51;16.42;;;10.90;;
29570;SDS011;16814;52.118;11.436;2023-05-21T11:53:18;17.80;;;11.10;;
29570;SDS011;16814;52.118;11.436;2023-05-21T11:55:45;16.50;;;10.48;;
29570;SDS011;16814;52.118;11.436;2023-05-21T11:58:12;15.43;;;10.43;;
29570;SDS011;16814;52.118;11.436;2023-05-21T12:00:41;20.73;;;11.18;;
29570;SDS011;16814;52.118;11.436;2023-05-21T12:03:08;15.13;;;10.43;;
29570;SDS011;16814;52.118;11.436;2023-05-21T12:05:45;13.52;;;10.77;;
29570;SDS011;16814;52.118;11.436;2023-05-21T12:08:11;15.82;;;11.05;;
29570;SDS011;16814;52.118;11.436;2023-05-21T12:10:39;17.33;;;10.23;;
29570;SDS011;16814;52.118;11.436;2023-05-21T12:13:07;16.30;;;11.38;;
29570;SDS011;16814;52.118;11.436;2023-05-21T12:15:36;19.23;;;11.38;;
29570;SDS011;16814;52.118;11.436;2023-05-21T12:18:04;16.42;;;11.27;;
29570;SDS011;16814;52.118;11.436;2023-05-21T12:20:33;16.70;;;11.52;;
29570;SDS011;16814;52.118;11.436;2023-05-21T12:23:00;16.55;;;11.65;;
29570;SDS011;16814;52.118;11.436;2023-05-21T12:25:28;15.67;;;11.27;;
29570;SDS011;16814;52.118;11.436;2023-05-21T12:27:56;15.90;;;11.35;;
29570;SDS011;16814;52.118;11.436;2023-05-21T12:30:24;23.48;;;11.65;;
29570;SDS011;16814;52.118;11.436;2023-05-21T12:32:56;17.03;;;11.60;;
29570;SDS011;16814;52.118;11.436;2023-05-21T12:35:23;16.77;;;11.30;;
29570;SDS011;16814;52.118;11.436;2023-05-21T12:37:50;15.10;;;11.40;;
29570;SDS011;16814;52.118;11.436;2023-05-21T12:40:19;15.38;;;11.55;;
29570;SDS011;16814;52.118;11.436;2023-05-21T12:42:48;18.67;;;11.93;;
29570;SDS011;16814;52.118;11.436;2023-05-21T12:45:14;18.20;;;11.48;;
29570;SDS011;16814;52.118;11.436;2023-05-21T12:47:46;19.33;;;12.50;;
29570;SDS011;16814;52.118;11.436;2023-05-21T12:50:23;15.15;;;11.45;;
29570;SDS011;16814;52.118;11.436;2023-05-21T12:52:58;16.90;;;11.88;;
29570;SDS011;16814;52.118;11.436;2023-05-21T12:55:26;23.38;;;12.15;;
29570;SDS011;16814;52.118;11.436;2023-05-21T12:58:03;16.95;;;12.25;;
29570;SDS011;16814;52.118;11.436;2023-05-21T13:00:33;18.02;;;11.32;;
29570;SDS011;16814;52.118;11.436;2023-05-21T13:03:01;15.50;;;11.70;;
29570;SDS011;16814;52.118;11.436;2023-05-21T13:05:30;15.35;;;11.60;;
29570;SDS011;16814;52.118;11.436;2023-05-21T13:07:56;23.02;;;11.95;;
29570;SDS011;16814;52.118;11.436;2023-05-21T13:10:22;17.30;;;12.23;;
29570;SDS011;16814;52.118;11.436;2023-05-21T13:12:49;18.60;;;12.13;;
29570;SDS011;16814;52.118;11.436;2023-05-21T13:15:17;17.65;;;11.40;;
29570;SDS011;16814;52.118;11.436;2023-05-21T13:17:44;15.45;;;11.82;;
29570;SDS011;16814;52.118;11.436;2023-05-21T13:20:18;15.63;;;11.80;;
29570;SDS011;16814;52.118;11.436;2023-05-21T13:22:48;19.63;;;12.32;;
29570;SDS011;16814;52.118;11.436;2023-05-21T13:25:19;15.55;;;11.93;;
29570;SDS011;16814;52.118;11.436;2023-05-21T13:27:48;15.98;;;11.75;;
29570;SDS011;16814;52.118;11.436;2023-05-21T13:30:16;16.42;;;11.52;;
29570;SDS011;16814;52.118;11.436;2023-05-21T13:32:44;17.13;;;12.02;;
29570;SDS011;16814;52.118;11.436;2023-05-21T13:35:09;19.10;;;11.77;;
29570;SDS011;16814;52.118;11.436;2023-05-21T13:37:44;19.90;;;12.10;;
29570;SDS011;16814;52.118;11.436;2023-05-21T13:40:12;18.87;;;11.83;;
29570;SDS011;16814;52.118;11.436;2023-05-21T13:42:41;16.00;;;11.63;;
29570;SDS011;16814;52.118;11.436;2023-05-21T13:45:08;18.23;;;11.60;;
29570;SDS011;16814;52.118;11.436;2023-05-21T13:47:37;16.73;;;11.40;;
29570;SDS011;16814;52.118;11.436;2023-05-21T13:50:05;16.35;;;11.75;;
29570;SDS011;16814;52.118;11.436;2023-05-21T13:52:32;17.63;;;11.77;;
29570;SDS011;16814;52.118;11.436;2023-05-21T13:55:01;18.35;;;12.45;;
29570;SDS011;16814;52.118;11.436;2023-05-21T13:57:27;19.53;;;11.23;;
29570;SDS011;16814;52.118;11.436;2023-05-21T13:59:55;14.77;;;11.02;;
29570;SDS011;16814;52.118;11.436;2023-05-21T14:02:24;14.80;;;11.77;;
29570;SDS011;16814;52.118;11.436;2023-05-21T14:04:52;16.37;;;11.90;;
29570;SDS011;16814;52.118;11.436;2023-05-21T14:07:19;18.83;;;11.82;;
29570;SDS011;16814;52.118;11.436;2023-05-21T14:09:46;25.85;;;11.82;;
29570;SDS011;16814;52.118;11.436;2023-05-21T14:12:12;15.73;;;12.00;;
29570;SDS011;16814;52.118;11.436;2023-05-21T14:14:40;18.33;;;12.30;;
29570;SDS011;16814;52.118;11.436;2023-05-21T14:17:07;18.20;;;11.70;;
29570;SDS011;16814;52.118;11.436;2023-05-21T14:19:34;15.82;;;12.02;;
29570;SDS011;16814;52.118;11.436;2023-05-21T14:22:00;15.93;;;11.05;;
29570;SDS011;16814;52.118;11.436;2023-05-21T14:24:28;14.85;;;11.45;;
29570;SDS011;16814;52.118;11.436;2023-05-21T14:26:54;18.33;;;12.13;;
29570;SDS011;16814;52.118;11.436;2023-05-21T14:29:22;16.17;;;11.38;;
29570;SDS011;16814;52.118;11.436;2023-05-21T14:31:48;34.57;;;11.77;;